createdAt,value
2017-11-30T00:02:55.478Z,99098.00
2017-11-30T00:05:56.933Z,99100.19
2017-11-30T00:08:58.374Z,99100.28
2017-11-30T00:11:59.941Z,99094.95
2017-11-30T00:15:01.390Z,99087.49
2017-11-30T00:18:02.843Z,99083.53
2017-11-30T00:21:04.232Z,99085.52
2017-11-30T00:24:05.657Z,99087.94
2017-11-30T00:27:07.077Z,99085.95
2017-11-30T00:30:08.488Z,99097.08
2017-11-30T00:33:10.014Z,99087.92
2017-11-30T00:36:11.373Z,99092.44
2017-11-30T00:39:13.577Z,99080.97
2017-11-30T00:42:33.484Z,99084.01
2017-11-30T00:45:34.878Z,99080.63
2017-11-30T00:48:37.095Z,99080.48
2017-11-30T00:51:38.492Z,99081.65
2017-11-30T00:54:39.886Z,99072.34
2017-11-30T00:57:41.326Z,99073.22
2017-11-30T01:00:42.757Z,99075.36
2017-11-30T01:03:44.223Z,99067.22
2017-11-30T01:06:46.349Z,99074.55
2017-11-30T01:09:47.827Z,99077.08
2017-11-30T01:12:49.182Z,99064.22
2017-11-30T01:15:50.572Z,99058.84
2017-11-30T01:18:52.028Z,99052.63
2017-11-30T01:21:53.465Z,99051.83
2017-11-30T01:24:55.605Z,99063.02
2017-11-30T01:27:57.104Z,99052.91
2017-11-30T01:30:58.454Z,99047.23
2017-11-30T01:33:59.835Z,99044.72
2017-11-30T01:37:01.279Z,99047.69
2017-11-30T01:40:02.821Z,99051.27
2017-11-30T01:43:04.314Z,99050.73
2017-11-30T01:46:05.799Z,99043.42
2017-11-30T01:49:07.939Z,99047.77
2017-11-30T01:52:09.366Z,99055.61
2017-11-30T01:55:10.800Z,99050.29
2017-11-30T01:58:12.933Z,99056.97
2017-11-30T02:01:15.082Z,99048.20
2017-11-30T02:04:17.398Z,99045.07
2017-11-30T02:07:19.557Z,99035.91
2017-11-30T02:10:21.681Z,99033.80
2017-11-30T02:13:23.897Z,99039.30
2017-11-30T02:16:25.969Z,99030.25
2017-11-30T02:19:28.134Z,99023.24
2017-11-30T02:22:30.367Z,99023.23
2017-11-30T02:25:31.790Z,99016.31
2017-11-30T02:28:33.451Z,99014.91
2017-11-30T02:31:34.913Z,99015.83
2017-11-30T02:34:36.351Z,98999.00
2017-11-30T02:37:37.722Z,99026.28
2017-11-30T02:40:39.150Z,99026.30
2017-11-30T02:43:40.613Z,99030.21
2017-11-30T02:46:42.166Z,99025.74
2017-11-30T02:49:43.591Z,99025.31
2017-11-30T02:52:45.131Z,99026.16
2017-11-30T02:55:47.262Z,99023.18
2017-11-30T02:58:48.672Z,99028.75
2017-11-30T03:01:50.062Z,99019.48
2017-11-30T03:04:51.497Z,99007.45
2017-11-30T03:07:52.922Z,99024.99
2017-11-30T03:10:54.413Z,99021.64
2017-11-30T03:13:55.840Z,99002.95
2017-11-30T03:16:57.244Z,99007.17
2017-11-30T03:19:58.746Z,99002.72
2017-11-30T03:23:00.146Z,98993.63
2017-11-30T03:26:01.626Z,98990.59
2017-11-30T03:29:03.799Z,98994.37
2017-11-30T03:32:06.046Z,98987.02
2017-11-30T03:35:07.466Z,98981.22
2017-11-30T03:38:08.871Z,98972.30
2017-11-30T03:41:11.090Z,98979.80
2017-11-30T03:44:12.476Z,98974.92
2017-11-30T03:47:13.937Z,98962.76
2017-11-30T03:50:15.277Z,98960.94
2017-11-30T03:53:16.814Z,98967.08
2017-11-30T03:56:18.161Z,98971.34
2017-11-30T03:59:19.585Z,98974.33
2017-11-30T04:02:20.991Z,98973.59
2017-11-30T04:05:22.469Z,98980.72
2017-11-30T04:08:23.901Z,98965.09
2017-11-30T04:11:25.257Z,98975.70
2017-11-30T04:14:27.370Z,98970.98
2017-11-30T04:17:29.027Z,98968.71
2017-11-30T04:20:30.435Z,98939.45
2017-11-30T04:23:32.576Z,98964.19
2017-11-30T04:26:33.934Z,98968.86
2017-11-30T04:29:35.326Z,98958.63
2017-11-30T04:32:36.712Z,98960.80
2017-11-30T04:35:38.052Z,98954.33
2017-11-30T04:38:39.435Z,98945.23
2017-11-30T04:41:40.811Z,98945.31
2017-11-30T04:44:43.075Z,98942.56
2017-11-30T04:47:44.484Z,98945.34
2017-11-30T04:50:45.861Z,98936.55
2017-11-30T04:53:47.318Z,98940.59
2017-11-30T04:56:48.712Z,98943.59
2017-11-30T04:59:50.113Z,98948.09
2017-11-30T05:02:51.680Z,98946.63
2017-11-30T05:05:53.134Z,98946.56
2017-11-30T05:08:54.541Z,98935.45
2017-11-30T05:11:55.994Z,98941.09
2017-11-30T05:14:57.416Z,98935.69
2017-11-30T05:17:58.898Z,98924.22
2017-11-30T05:21:00.428Z,98930.38
2017-11-30T05:24:01.840Z,98927.77
2017-11-30T05:27:03.281Z,98926.12
2017-11-30T05:30:04.684Z,98923.91
2017-11-30T05:33:06.093Z,98925.06
2017-11-30T05:36:07.481Z,98924.56
2017-11-30T05:39:09.589Z,98918.11
2017-11-30T05:42:10.962Z,98925.41
2017-11-30T05:45:12.333Z,98919.20
2017-11-30T05:48:13.726Z,98911.34
2017-11-30T05:51:15.090Z,98920.37
2017-11-30T05:54:16.475Z,98913.01
2017-11-30T05:57:17.875Z,98915.38
2017-11-30T06:00:19.266Z,98909.47
2017-11-30T06:03:20.712Z,98911.56
2017-11-30T06:06:22.097Z,98913.47
2017-11-30T06:09:23.564Z,98912.88
2017-11-30T06:12:25.931Z,98901.66
2017-11-30T06:15:28.124Z,98910.73
2017-11-30T06:18:29.521Z,98907.02
2017-11-30T06:21:30.939Z,98915.05
2017-11-30T06:24:32.330Z,98916.78
2017-11-30T06:27:33.751Z,98905.77
2017-11-30T06:30:35.237Z,98899.27
2017-11-30T06:33:36.623Z,98903.94
2017-11-30T06:36:38.819Z,98906.90
2017-11-30T06:39:40.240Z,98909.45
2017-11-30T06:42:42.330Z,98918.08
2017-11-30T06:45:43.733Z,98922.52
2017-11-30T06:48:45.157Z,98907.39
2017-11-30T06:51:46.592Z,98911.20
2017-11-30T06:54:48.033Z,98920.44
2017-11-30T06:57:49.416Z,98909.31
2017-11-30T07:00:50.896Z,98930.37
2017-11-30T07:03:52.311Z,98908.54
2017-11-30T07:06:53.662Z,98914.78
2017-11-30T07:09:55.071Z,98909.86
2017-11-30T07:12:57.164Z,98913.88
2017-11-30T07:15:58.501Z,98915.55
2017-11-30T07:19:00.576Z,98929.81
2017-11-30T07:22:02.686Z,98928.16
2017-11-30T07:25:04.096Z,98922.78
2017-11-30T07:28:05.436Z,98921.22
2017-11-30T07:31:07.540Z,98932.16
2017-11-30T07:34:08.915Z,98924.08
2017-11-30T07:37:10.290Z,98925.06
2017-11-30T07:40:11.665Z,98927.96
2017-11-30T07:43:13.732Z,98921.20
2017-11-30T07:46:15.749Z,98924.45
2017-11-30T07:49:18.041Z,98928.47
2017-11-30T08:18:33.928Z,98917.34
2017-11-30T08:21:35.402Z,98919.69
2017-11-30T08:24:36.852Z,98915.61
2017-11-30T08:27:38.299Z,98910.48
2017-11-30T08:30:39.884Z,98918.00
2017-11-30T08:33:41.381Z,98918.78
2017-11-30T08:36:42.881Z,98912.57
2017-11-30T08:39:44.355Z,98908.80
2017-11-30T08:42:45.750Z,98914.93
2017-11-30T08:45:47.145Z,98909.42
2017-11-30T08:48:48.681Z,98904.64
2017-11-30T08:51:50.246Z,98915.02
2017-11-30T08:54:51.717Z,98908.56
2017-11-30T08:57:53.121Z,98916.66
2017-11-30T09:00:54.467Z,98911.47
2017-11-30T09:03:55.931Z,98911.55
2017-11-30T09:06:57.306Z,98911.69
2017-11-30T09:09:58.725Z,98910.77
2017-11-30T09:13:00.095Z,98920.64
2017-11-30T09:16:01.478Z,98903.48
2017-11-30T09:19:02.967Z,98900.11
2017-11-30T09:22:04.321Z,98896.89
2017-11-30T09:25:05.737Z,98910.48
2017-11-30T09:28:07.124Z,98906.89
2017-11-30T09:31:08.479Z,98899.12
2017-11-30T09:34:09.845Z,98898.28
2017-11-30T09:37:11.237Z,98902.61
2017-11-30T09:40:12.617Z,98898.67
2017-11-30T09:43:13.980Z,98897.91
2017-11-30T09:46:15.401Z,98902.33
2017-11-30T09:49:16.791Z,98890.58
2017-11-30T09:52:18.171Z,98897.00
2017-11-30T09:55:19.630Z,98897.95
2017-11-30T09:58:21.025Z,98892.98
2017-11-30T10:01:23.147Z,98882.60
2017-11-30T10:04:24.613Z,98888.27
2017-11-30T10:07:25.961Z,98884.97
2017-11-30T10:10:27.337Z,98887.00
2017-11-30T10:13:29.482Z,98888.54
2017-11-30T10:16:30.936Z,98887.01
2017-11-30T10:19:32.306Z,98875.38
2017-11-30T10:22:34.429Z,98870.87
2017-11-30T10:25:35.757Z,98866.16
2017-11-30T10:28:37.251Z,98868.22
2017-11-30T10:31:38.618Z,98856.63
2017-11-30T10:34:39.990Z,98863.57
2017-11-30T10:37:42.088Z,98869.45
2017-11-30T10:40:43.478Z,98862.62
2017-11-30T10:43:44.818Z,98860.05
2017-11-30T10:46:46.310Z,98861.72
2017-11-30T10:49:48.423Z,98861.44
2017-11-30T10:52:49.785Z,98855.21
2017-11-30T10:55:51.233Z,98854.08
2017-11-30T10:58:52.586Z,98849.63
2017-11-30T11:01:54.070Z,98849.44
2017-11-30T11:04:56.167Z,98849.56
2017-11-30T11:07:57.677Z,98835.92
2017-11-30T11:10:59.098Z,98841.16
2017-11-30T11:14:00.478Z,98833.67
2017-11-30T11:17:01.785Z,98828.61
2017-11-30T11:20:03.185Z,98828.80
2017-11-30T11:23:04.582Z,98838.94
2017-11-30T11:26:05.944Z,98836.33
2017-11-30T11:29:07.281Z,98835.48
2017-11-30T11:32:08.727Z,98833.91
2017-11-30T11:35:10.086Z,98825.38
2017-11-30T11:38:11.438Z,98826.13
2017-11-30T11:41:12.907Z,98829.77
2017-11-30T11:44:14.298Z,98832.36
2017-11-30T11:47:15.811Z,98830.85
2017-11-30T11:50:17.158Z,98821.84
2017-11-30T11:53:18.502Z,98830.08
2017-11-30T11:56:19.859Z,98826.06
2017-11-30T11:59:21.221Z,98828.91
2017-11-30T12:02:22.605Z,98830.02
2017-11-30T12:05:23.982Z,98826.53
2017-11-30T12:08:25.343Z,98817.98
2017-11-30T12:11:26.678Z,98827.95
2017-11-30T12:14:28.799Z,98835.69
2017-11-30T12:17:30.158Z,98832.36
2017-11-30T12:20:31.536Z,98829.58
2017-11-30T12:23:33.637Z,98823.05
2017-11-30T12:26:35.186Z,98830.34
2017-11-30T12:29:36.722Z,98827.55
2017-11-30T12:32:38.809Z,98832.61
2017-11-30T12:35:40.197Z,98827.91
2017-11-30T12:38:41.953Z,98836.11
2017-11-30T12:41:43.301Z,98829.57
2017-11-30T12:44:44.643Z,98829.17
2017-11-30T12:47:45.966Z,98822.58
2017-11-30T12:50:47.306Z,98814.27
2017-11-30T12:53:48.681Z,98814.04
2017-11-30T12:56:50.068Z,98815.11
2017-11-30T12:59:51.420Z,98811.83
2017-11-30T13:02:52.880Z,98815.40
2017-11-30T13:05:54.303Z,98808.17
2017-11-30T13:08:55.654Z,98807.16
2017-11-30T13:11:57.035Z,98795.21
2017-11-30T13:14:58.356Z,98797.77
2017-11-30T13:17:59.684Z,98798.88
2017-11-30T13:21:01.055Z,98798.17
2017-11-30T13:24:02.464Z,98801.62
2017-11-30T13:27:04.572Z,98806.30
2017-11-30T13:30:06.029Z,98787.98
2017-11-30T13:33:07.399Z,98798.06
2017-11-30T13:36:08.764Z,98796.27
2017-11-30T13:39:10.180Z,98786.41
2017-11-30T13:42:11.576Z,98788.36
2017-11-30T13:45:13.692Z,98802.36
2017-11-30T13:48:14.997Z,98817.27
2017-11-30T13:51:17.092Z,98795.56
2017-11-30T13:54:18.387Z,98799.97
2017-11-30T13:57:19.781Z,98795.96
2017-11-30T14:00:21.160Z,98799.73
2017-11-30T14:03:22.515Z,98806.23
2017-11-30T14:06:23.917Z,98804.28
2017-11-30T14:09:26.013Z,98805.93
2017-11-30T14:12:27.345Z,98803.13
2017-11-30T14:15:29.396Z,98810.84
2017-11-30T14:18:31.515Z,98806.78
2017-11-30T14:21:32.934Z,98813.91
2017-11-30T14:24:34.277Z,98816.27
2017-11-30T14:27:36.416Z,98813.28
2017-11-30T14:30:37.779Z,98811.66
2017-11-30T14:33:39.080Z,98816.58
2017-11-30T14:36:40.442Z,98819.02
2017-11-30T14:39:41.827Z,98815.84
2017-11-30T14:42:43.214Z,98831.63
2017-11-30T14:45:45.344Z,98827.07
2017-11-30T14:48:46.696Z,98840.70
2017-11-30T14:51:48.064Z,98838.73
2017-11-30T14:54:50.262Z,98837.66
2017-11-30T14:57:51.625Z,98838.93
2017-11-30T15:00:52.951Z,98862.48
2017-11-30T15:03:54.413Z,98833.77
2017-11-30T15:06:55.756Z,98850.13
2017-11-30T15:09:57.084Z,98839.06
2017-11-30T15:12:59.209Z,98847.76
2017-11-30T15:16:00.587Z,98846.64
2017-11-30T15:19:02.012Z,98846.66
2017-11-30T15:22:04.517Z,98841.79
2017-11-30T15:25:05.820Z,98846.89
2017-11-30T15:28:07.389Z,98845.34
2017-11-30T15:31:08.717Z,98855.05
2017-11-30T15:34:10.591Z,98855.20
2017-11-30T15:37:13.005Z,98862.47
2017-11-30T15:40:14.479Z,98863.33
2017-11-30T15:43:16.713Z,98865.08
2017-11-30T15:46:18.182Z,98866.75
2017-11-30T15:49:19.552Z,98858.45
2017-11-30T15:52:21.633Z,98869.59
2017-11-30T15:55:23.781Z,98866.06
2017-11-30T15:58:25.277Z,98865.16
2017-11-30T16:01:26.715Z,98877.42
2017-11-30T16:04:28.080Z,98870.98
2017-11-30T16:07:29.440Z,98883.76
2017-11-30T16:10:30.824Z,98875.14
2017-11-30T16:13:32.192Z,98869.45
2017-11-30T16:16:34.319Z,98882.38
2017-11-30T16:19:35.700Z,98885.36
2017-11-30T16:22:37.282Z,98888.72
2017-11-30T16:25:39.730Z,98888.11
2017-11-30T16:28:41.897Z,98883.80
2017-11-30T16:31:43.288Z,98881.59
2017-11-30T16:34:44.697Z,98884.86
2017-11-30T16:37:46.093Z,98881.13
2017-11-30T16:40:47.531Z,98882.59
2017-11-30T16:43:48.842Z,98878.58
2017-11-30T16:46:50.287Z,98873.47
2017-11-30T16:49:51.728Z,98875.27
2017-11-30T16:52:53.099Z,98867.63
2017-11-30T16:55:54.745Z,98881.27
2017-11-30T16:58:56.861Z,98891.02
2017-11-30T17:01:59.021Z,98891.64
2017-11-30T17:05:08.101Z,98893.16
2017-11-30T17:08:09.500Z,98895.57
2017-11-30T17:11:11.632Z,98897.75
2017-11-30T17:14:13.112Z,98888.56
2017-11-30T17:17:15.051Z,98890.94
2017-11-30T17:20:16.751Z,98898.44
2017-11-30T17:23:18.636Z,98904.14
2017-11-30T17:26:20.059Z,98901.89
2017-11-30T17:29:22.508Z,98901.04
2017-11-30T17:32:25.095Z,98911.02
2017-11-30T17:35:27.839Z,98903.00
2017-11-30T17:38:29.437Z,98904.13
2017-11-30T17:41:31.204Z,98911.31
2017-11-30T17:44:33.511Z,98909.36
2017-11-30T17:47:35.262Z,98915.48
2017-11-30T17:50:36.795Z,98913.84
2017-11-30T17:53:38.284Z,98910.20
2017-11-30T17:56:39.818Z,98918.98
2017-11-30T17:59:42.356Z,98924.30
2017-11-30T18:02:43.920Z,98925.69
2017-11-30T18:05:45.536Z,98929.19
2017-11-30T18:08:47.307Z,98930.06
2017-11-30T18:11:49.195Z,98923.05
2017-11-30T18:14:51.476Z,98926.23
2017-11-30T18:17:52.885Z,98924.13
2017-11-30T18:20:54.287Z,98931.98
2017-11-30T18:23:55.656Z,98940.52
2017-11-30T18:26:57.896Z,98936.91
2017-11-30T18:29:59.860Z,98937.43
2017-11-30T18:33:01.649Z,98925.66
2017-11-30T18:36:03.457Z,98947.81
2017-11-30T18:39:05.433Z,98930.70
2017-11-30T18:42:07.053Z,98943.74
2017-11-30T18:45:08.872Z,98947.65
2017-11-30T18:48:10.435Z,98952.19
2017-11-30T18:51:12.112Z,98950.80
2017-11-30T18:54:14.229Z,98947.84
2017-11-30T18:57:16.372Z,98948.20
2017-11-30T19:00:18.745Z,98949.08
2017-11-30T19:03:21.301Z,98941.27
2017-11-30T19:06:24.867Z,98949.81
2017-11-30T19:09:26.289Z,98944.32
2017-11-30T19:12:29.017Z,98943.48
2017-11-30T19:15:31.563Z,98951.90
2017-11-30T19:18:33.168Z,98956.74
2017-11-30T19:21:35.032Z,98957.56
2017-11-30T19:24:37.280Z,98958.24
2017-11-30T19:27:38.592Z,98963.94
2017-11-30T19:30:40.938Z,98967.02
2017-11-30T19:33:43.290Z,98968.77
2017-11-30T19:36:44.699Z,98969.62
2017-11-30T19:39:46.330Z,98973.10
2017-11-30T19:42:47.692Z,98962.95
2017-11-30T19:45:49.264Z,98973.36
2017-11-30T19:48:50.657Z,98964.25
2017-11-30T19:51:52.238Z,98975.31
2017-11-30T19:54:53.608Z,98981.44
2017-11-30T19:57:55.217Z,98983.64
2017-11-30T20:00:57.681Z,98986.18
2017-11-30T20:03:59.111Z,98988.97
2017-11-30T20:07:00.619Z,98985.50
2017-11-30T20:10:02.833Z,98981.50
2017-11-30T20:13:04.386Z,98987.48
2017-11-30T20:16:05.873Z,98987.69
2017-11-30T20:19:07.377Z,98998.52
2017-11-30T20:22:08.845Z,99004.72
2017-11-30T20:25:10.315Z,98988.34
2017-11-30T20:28:11.792Z,99005.73
2017-11-30T20:31:13.434Z,98996.55
2017-11-30T20:34:14.889Z,99011.70
2017-11-30T20:37:16.328Z,99019.70
2017-11-30T20:40:17.747Z,99018.20
2017-11-30T20:43:19.841Z,99022.91
2017-11-30T20:46:21.425Z,99025.70
2017-11-30T20:49:22.809Z,99033.02
2017-11-30T20:52:24.449Z,99026.69
2017-11-30T20:55:25.984Z,99039.59
2017-11-30T20:58:27.525Z,99034.11
2017-11-30T21:01:28.974Z,99033.84
2017-11-30T21:04:30.434Z,99036.39
2017-11-30T21:07:31.824Z,99040.59
2017-11-30T21:10:34.821Z,99031.69
2017-11-30T21:13:36.626Z,99043.98
2017-11-30T21:16:38.822Z,99039.27
2017-11-30T21:19:40.340Z,99038.70
2017-11-30T21:22:41.743Z,99039.06
2017-11-30T21:25:43.322Z,99042.47
2017-11-30T21:28:44.780Z,99045.92
2017-11-30T21:31:46.455Z,99051.06
2017-11-30T21:34:48.080Z,99059.62
2017-11-30T21:37:49.536Z,99060.86
2017-11-30T21:40:51.085Z,99057.66
2017-11-30T21:43:52.451Z,99067.67
2017-11-30T21:46:54.042Z,99073.05
2017-11-30T21:49:56.253Z,99083.38
2017-11-30T21:52:58.322Z,99068.67
2017-11-30T21:55:59.779Z,99080.07
2017-11-30T21:59:01.189Z,99086.00
2017-11-30T22:02:03.995Z,99081.27
2017-11-30T22:05:06.188Z,99072.95
2017-11-30T22:08:07.612Z,99077.86
2017-11-30T22:11:09.712Z,99073.26
2017-11-30T22:14:11.584Z,99070.81
2017-11-30T22:17:13.245Z,99070.52
2017-11-30T22:20:15.431Z,99086.13
2017-11-30T22:23:16.861Z,99080.88
2017-11-30T22:26:33.165Z,99083.42
2017-11-30T22:29:34.601Z,99077.40
2017-11-30T22:32:35.981Z,99082.27
2017-11-30T22:35:37.392Z,99086.33
2017-11-30T22:38:38.787Z,99090.44
2017-11-30T22:41:40.917Z,99082.48
2017-11-30T22:44:42.357Z,99093.14
2017-11-30T22:47:43.729Z,99094.52
2017-11-30T22:50:45.193Z,99101.95
2017-11-30T22:53:46.655Z,99105.48
2017-11-30T22:56:48.110Z,99111.22
2017-11-30T22:59:49.478Z,99115.17
2017-11-30T23:02:50.904Z,99114.22
2017-11-30T23:05:52.276Z,99121.26
2017-11-30T23:08:53.684Z,99125.23
2017-11-30T23:11:55.121Z,99129.25
2017-11-30T23:14:56.476Z,99138.44
2017-11-30T23:17:57.900Z,99144.35
2017-11-30T23:21:00.036Z,99142.89
2017-11-30T23:24:01.460Z,99126.02
2017-11-30T23:27:02.828Z,99142.06
2017-11-30T23:30:04.244Z,99136.06
2017-11-30T23:33:06.508Z,99152.12
2017-11-30T23:36:07.884Z,99154.22
2017-11-30T23:39:09.329Z,99156.44
2017-11-30T23:42:10.737Z,99159.03
2017-11-30T23:45:12.145Z,99159.98
2017-11-30T23:48:13.513Z,99151.53
2017-11-30T23:51:14.908Z,99162.27
2017-11-30T23:54:17.015Z,99162.99
2017-11-30T23:57:18.438Z,99164.27
